createdAt,value
2023-03-06T00:00:21.156Z,979.348
2023-03-06T00:01:21.762Z,979.156
2023-03-06T00:02:21.285Z,979.229
2023-03-06T00:03:21.998Z,979.280
2023-03-06T00:04:21.865Z,979.214
2023-03-06T00:05:21.421Z,979.217
2023-03-06T00:06:21.526Z,979.248
2023-03-06T00:07:21.085Z,979.133
2023-03-06T00:08:21.612Z,979.198
2023-03-06T00:09:21.165Z,979.217
2023-03-06T00:10:21.639Z,979.254
2023-03-06T00:11:21.220Z,979.155
2023-03-06T00:12:21.749Z,979.227
2023-03-06T00:13:21.290Z,979.158
2023-03-06T00:14:21.751Z,979.097
2023-03-06T00:15:21.184Z,979.111
2023-03-06T00:16:21.797Z,979.131
2023-03-06T00:17:21.323Z,979.138
2023-03-06T00:18:21.788Z,979.052
2023-03-06T00:19:21.345Z,978.992
2023-03-06T00:20:21.832Z,979.009
2023-03-06T00:21:21.439Z,979.018
2023-03-06T00:22:21.847Z,979.008
2023-03-06T00:23:21.360Z,979.071
2023-03-06T00:24:21.808Z,979.046
2023-03-06T00:25:21.341Z,979.000
2023-03-06T00:26:21.958Z,978.822
2023-03-06T00:27:21.717Z,978.955
2023-03-06T00:28:21.860Z,978.940
2023-03-06T00:29:21.397Z,978.965
2023-03-06T00:30:21.913Z,979.008
2023-03-06T00:31:21.462Z,979.058
2023-03-06T00:32:21.991Z,979.018
2023-03-06T00:33:21.568Z,978.974
2023-03-06T00:34:21.109Z,979.047
2023-03-06T00:35:21.642Z,978.951
2023-03-06T00:36:21.541Z,978.998
2023-03-06T00:37:21.978Z,978.840
2023-03-06T00:38:21.483Z,979.015
2023-03-06T00:39:21.047Z,978.945
2023-03-06T00:40:21.668Z,978.902
2023-03-06T00:41:21.280Z,978.879
2023-03-06T00:42:21.745Z,978.924
2023-03-06T00:43:21.279Z,978.761
2023-03-06T00:44:21.843Z,978.856
2023-03-06T00:45:21.333Z,978.713
2023-03-06T00:46:21.171Z,978.775
2023-03-06T00:47:21.736Z,978.768
2023-03-06T00:48:21.317Z,978.670
2023-03-06T00:49:21.818Z,978.771
2023-03-06T00:50:21.329Z,978.825
2023-03-06T00:51:21.822Z,978.703
2023-03-06T00:52:21.347Z,978.635
2023-03-06T00:53:21.859Z,978.515
2023-03-06T00:54:21.326Z,978.664
2023-03-06T00:55:21.823Z,978.621
2023-03-06T00:56:21.374Z,978.732
2023-03-06T00:57:21.892Z,978.660
2023-03-06T00:58:21.442Z,978.658
2023-03-06T00:59:21.994Z,978.626
2023-03-06T01:00:21.634Z,978.430
2023-03-06T01:01:21.301Z,978.404
2023-03-06T01:02:21.052Z,978.449
2023-03-06T01:03:21.641Z,978.472
2023-03-06T01:04:21.209Z,978.444
2023-03-06T01:05:21.877Z,978.347
2023-03-06T01:06:21.433Z,978.505
2023-03-06T01:07:21.947Z,978.402
2023-03-06T01:08:21.535Z,978.431
2023-03-06T01:09:21.130Z,978.393
2023-03-06T01:10:21.629Z,978.262
2023-03-06T01:11:21.320Z,978.292
2023-03-06T01:12:23.443Z,978.289
2023-03-06T01:13:21.075Z,978.284
2023-03-06T01:14:21.685Z,978.253
2023-03-06T01:15:21.278Z,978.361
2023-03-06T01:16:22.009Z,978.282
2023-03-06T01:17:21.774Z,978.355
2023-03-06T01:18:21.389Z,978.193
2023-03-06T01:19:21.981Z,978.193
2023-03-06T01:20:21.498Z,978.201
2023-03-06T01:21:21.180Z,978.258
2023-03-06T01:22:21.879Z,978.109
2023-03-06T01:23:21.441Z,978.219
2023-03-06T01:24:20.988Z,978.148
2023-03-06T01:25:21.392Z,978.112
2023-03-06T01:26:21.925Z,978.189
2023-03-06T01:27:21.452Z,978.141
2023-03-06T01:28:21.017Z,977.986
2023-03-06T01:29:21.548Z,978.124
2023-03-06T01:30:21.045Z,978.106
2023-03-06T01:31:21.536Z,978.034
2023-03-06T01:32:21.408Z,978.022
2023-03-06T01:33:21.140Z,977.934
2023-03-06T01:34:21.624Z,978.060
2023-03-06T01:35:21.139Z,978.051
2023-03-06T01:36:21.833Z,978.045
2023-03-06T01:37:21.312Z,977.983
2023-03-06T01:38:21.815Z,978.040
2023-03-06T01:39:21.301Z,977.985
2023-03-06T01:40:21.848Z,978.029
2023-03-06T01:41:21.447Z,977.981
2023-03-06T01:42:21.008Z,977.958
2023-03-06T01:43:21.605Z,977.907
2023-03-06T01:44:21.177Z,977.952
2023-03-06T01:45:21.717Z,977.854
2023-03-06T01:46:21.392Z,977.848
2023-03-06T01:47:21.930Z,977.920
2023-03-06T01:48:21.525Z,977.837
2023-03-06T01:49:21.044Z,977.713
2023-03-06T01:50:21.539Z,977.953
2023-03-06T01:51:21.109Z,977.744
2023-03-06T01:52:21.613Z,977.843
2023-03-06T01:53:21.097Z,977.876
2023-03-06T01:54:21.566Z,977.820
2023-03-06T01:55:21.027Z,977.782
2023-03-06T01:56:21.559Z,977.699
2023-03-06T01:57:21.108Z,977.744
2023-03-06T01:58:21.835Z,977.754
2023-03-06T01:59:21.352Z,977.574
2023-03-06T02:00:21.901Z,977.644
2023-03-06T02:01:21.459Z,977.690
2023-03-06T02:02:21.262Z,977.675
2023-03-06T02:03:21.873Z,977.645
2023-03-06T02:04:21.440Z,977.780
2023-03-06T02:05:21.941Z,977.816
2023-03-06T02:06:21.525Z,977.637
2023-03-06T02:07:21.192Z,977.550
2023-03-06T02:08:21.632Z,977.692
2023-03-06T02:09:21.265Z,977.654
2023-03-06T02:10:21.773Z,977.633
2023-03-06T02:11:21.323Z,977.558
2023-03-06T02:12:21.285Z,977.657
2023-03-06T02:13:21.851Z,977.699
2023-03-06T02:14:21.407Z,977.538
2023-03-06T02:15:21.929Z,977.549
2023-03-06T02:16:21.466Z,977.561
2023-03-06T02:17:21.217Z,977.646
2023-03-06T02:18:21.721Z,977.582
2023-03-06T02:19:21.198Z,977.619
2023-03-06T02:20:21.798Z,977.604
2023-03-06T02:21:21.453Z,977.640
2023-03-06T02:22:21.131Z,977.574
2023-03-06T02:23:21.675Z,977.423
2023-03-06T02:24:21.276Z,977.559
2023-03-06T02:25:21.128Z,977.538
2023-03-06T02:26:21.667Z,977.522
2023-03-06T02:27:21.224Z,977.547
2023-03-06T02:28:21.796Z,977.479
2023-03-06T02:29:21.355Z,977.452
2023-03-06T02:30:21.872Z,977.418
2023-03-06T02:31:21.678Z,977.351
2023-03-06T02:32:21.332Z,977.395
2023-03-06T02:33:21.203Z,977.355
2023-03-06T02:34:21.715Z,977.417
2023-03-06T02:35:21.354Z,977.438
2023-03-06T02:36:21.333Z,977.361
2023-03-06T02:37:21.873Z,977.479
2023-03-06T02:38:21.385Z,977.402
2023-03-06T02:39:21.025Z,977.382
2023-03-06T02:40:21.656Z,977.421
2023-03-06T02:41:21.303Z,977.260
2023-03-06T02:42:21.910Z,977.336
2023-03-06T02:43:21.706Z,977.273
2023-03-06T02:44:21.262Z,977.239
2023-03-06T02:45:21.893Z,977.165
2023-03-06T02:46:21.666Z,977.136
2023-03-06T02:47:21.236Z,977.106
2023-03-06T02:48:21.790Z,977.127
2023-03-06T02:49:21.285Z,977.113
2023-03-06T02:50:21.023Z,977.267
2023-03-06T02:51:21.567Z,977.247
2023-03-06T02:52:21.135Z,977.166
2023-03-06T02:53:21.766Z,977.265
2023-03-06T02:54:21.280Z,977.204
2023-03-06T02:55:21.010Z,977.333
2023-03-06T02:56:21.571Z,977.213
2023-03-06T02:57:21.116Z,977.262
2023-03-06T02:58:21.720Z,977.276
2023-03-06T02:59:21.231Z,977.164
2023-03-06T03:00:21.977Z,977.156
2023-03-06T03:01:21.177Z,977.257
2023-03-06T03:02:20.984Z,977.097
2023-03-06T03:03:21.509Z,977.128
2023-03-06T03:04:21.344Z,976.907
2023-03-06T03:05:21.282Z,977.094
2023-03-06T03:06:21.864Z,977.109
2023-03-06T03:07:21.789Z,977.021
2023-03-06T03:08:21.409Z,976.965
2023-03-06T03:09:21.028Z,976.922
2023-03-06T03:10:21.637Z,976.981
2023-03-06T03:11:21.536Z,976.921
2023-03-06T03:12:21.254Z,977.064
2023-03-06T03:13:21.753Z,976.975
2023-03-06T03:14:21.297Z,977.000
2023-03-06T03:15:21.841Z,976.955
2023-03-06T03:16:21.580Z,976.940
2023-03-06T03:17:21.421Z,976.954
2023-03-06T03:18:21.942Z,977.029
2023-03-06T03:19:21.492Z,976.936
2023-03-06T03:20:21.048Z,976.991
2023-03-06T03:21:21.656Z,977.008
2023-03-06T03:22:21.269Z,976.909
2023-03-06T03:23:21.056Z,976.838
2023-03-06T03:24:21.699Z,976.840
2023-03-06T03:25:21.504Z,976.836
2023-03-06T03:26:21.989Z,976.980
2023-03-06T03:27:21.544Z,976.855
2023-03-06T03:28:21.162Z,977.004
2023-03-06T03:29:21.631Z,976.838
2023-03-06T03:30:21.141Z,976.935
2023-03-06T03:31:21.832Z,976.944
2023-03-06T03:32:21.382Z,976.999
2023-03-06T03:33:21.937Z,977.013
2023-03-06T03:34:21.464Z,976.892
2023-03-06T03:35:22.037Z,976.852
2023-03-06T03:36:21.663Z,977.006
2023-03-06T03:37:21.229Z,977.029
2023-03-06T03:38:21.759Z,976.985
2023-03-06T03:39:21.313Z,976.918
2023-03-06T03:40:21.860Z,976.850
2023-03-06T03:41:21.544Z,976.834
2023-03-06T03:42:21.097Z,976.830
2023-03-06T03:43:21.069Z,976.864
2023-03-06T03:44:21.637Z,976.823
2023-03-06T03:45:21.117Z,976.799
2023-03-06T03:46:21.673Z,976.757
2023-03-06T03:47:21.504Z,976.733
2023-03-06T03:48:21.071Z,976.693
2023-03-06T03:49:21.623Z,976.827
2023-03-06T03:50:21.195Z,976.719
2023-03-06T03:51:21.636Z,976.816
2023-03-06T03:52:21.099Z,976.737
2023-03-06T03:53:21.601Z,976.782
2023-03-06T03:54:21.148Z,976.804
2023-03-06T03:55:21.660Z,976.745
2023-03-06T03:56:21.132Z,976.797
2023-03-06T03:57:21.632Z,976.596
2023-03-06T03:58:21.197Z,976.711
2023-03-06T03:59:21.865Z,976.597
2023-03-06T04:00:21.616Z,976.657
2023-03-06T04:01:21.165Z,976.580
2023-03-06T04:02:21.942Z,976.543
2023-03-06T04:03:21.574Z,976.567
2023-03-06T04:04:21.225Z,976.555
2023-03-06T04:05:21.010Z,976.527
2023-03-06T04:06:21.609Z,976.451
2023-03-06T04:07:21.149Z,976.508
2023-03-06T04:08:21.662Z,976.407
2023-03-06T04:09:21.233Z,976.441
2023-03-06T04:10:21.778Z,976.359
2023-03-06T04:11:21.257Z,976.456
2023-03-06T04:12:21.821Z,976.440
2023-03-06T04:13:21.366Z,976.334
2023-03-06T04:14:20.997Z,976.401
2023-03-06T04:15:21.592Z,976.406
2023-03-06T04:16:22.150Z,976.410
2023-03-06T04:17:22.270Z,976.327
2023-03-06T04:18:21.303Z,976.338
2023-03-06T04:19:21.920Z,976.401
2023-03-06T04:20:21.587Z,976.371
2023-03-06T04:21:21.345Z,976.300
2023-03-06T04:22:21.954Z,976.385
2023-03-06T04:23:21.517Z,976.219
2023-03-06T04:24:21.152Z,976.353
2023-03-06T04:25:21.662Z,976.318
2023-03-06T04:26:21.232Z,976.300
2023-03-06T04:27:21.888Z,976.270
2023-03-06T04:28:21.473Z,976.332
2023-03-06T04:29:21.968Z,976.271
2023-03-06T04:30:21.596Z,976.192
2023-03-06T04:31:21.400Z,976.229
2023-03-06T04:32:21.565Z,976.110
2023-03-06T04:33:21.326Z,976.289
2023-03-06T04:34:21.850Z,976.281
2023-03-06T04:35:21.407Z,976.338
2023-03-06T04:36:21.225Z,976.264
2023-03-06T04:37:21.700Z,976.297
2023-03-06T04:38:21.373Z,976.282
2023-03-06T04:39:21.154Z,976.359
2023-03-06T04:40:21.705Z,976.185
2023-03-06T04:41:21.450Z,976.321
2023-03-06T04:42:21.393Z,976.260
2023-03-06T04:43:21.908Z,976.341
2023-03-06T04:44:21.449Z,976.267
2023-03-06T04:45:22.018Z,976.243
2023-03-06T04:46:21.976Z,976.259
2023-03-06T04:47:21.472Z,976.340
2023-03-06T04:48:21.201Z,976.219
2023-03-06T04:49:21.712Z,976.246
2023-03-06T04:50:21.269Z,976.172
2023-03-06T04:51:21.928Z,976.062
2023-03-06T04:52:21.527Z,976.181
2023-03-06T04:53:21.076Z,976.035
2023-03-06T04:54:21.612Z,976.023
2023-03-06T04:55:21.120Z,976.208
2023-03-06T04:56:21.645Z,976.032
2023-03-06T04:57:21.233Z,976.070
2023-03-06T04:58:21.901Z,976.136
2023-03-06T04:59:21.482Z,976.145
2023-03-06T05:00:21.230Z,976.132
2023-03-06T05:01:21.059Z,976.183
2023-03-06T05:02:21.964Z,976.085
2023-03-06T05:03:21.540Z,976.026
2023-03-06T05:04:21.145Z,975.948
2023-03-06T05:05:21.640Z,976.073
2023-03-06T05:06:21.273Z,976.034
2023-03-06T05:07:21.817Z,976.026
2023-03-06T05:08:21.865Z,976.082
2023-03-06T05:09:21.561Z,975.992
2023-03-06T05:10:21.165Z,975.970
2023-03-06T05:11:21.664Z,976.021
2023-03-06T05:12:21.198Z,976.126
2023-03-06T05:13:21.740Z,976.063
2023-03-06T05:14:21.270Z,976.127
2023-03-06T05:15:21.727Z,976.012
2023-03-06T05:16:21.344Z,976.001
2023-03-06T05:17:21.128Z,976.054
2023-03-06T05:18:21.631Z,976.041
2023-03-06T05:19:21.375Z,976.059
2023-03-06T05:20:21.885Z,976.053
2023-03-06T05:21:21.478Z,976.072
2023-03-06T05:22:21.048Z,976.062
2023-03-06T05:23:21.500Z,975.964
2023-03-06T05:24:21.096Z,976.060
2023-03-06T05:25:21.772Z,976.026
2023-03-06T05:26:21.384Z,976.041
2023-03-06T05:27:21.938Z,976.095
2023-03-06T05:28:21.705Z,976.143
2023-03-06T05:29:21.249Z,976.057
2023-03-06T05:30:21.793Z,975.925
2023-03-06T05:31:21.092Z,976.024
2023-03-06T05:32:22.066Z,976.010
2023-03-06T05:33:21.877Z,975.946
2023-03-06T05:34:21.464Z,975.958
2023-03-06T05:35:21.967Z,975.944
2023-03-06T05:36:21.853Z,975.961
2023-03-06T05:37:21.713Z,976.078
2023-03-06T05:38:21.793Z,976.005
2023-03-06T05:39:21.420Z,975.934
2023-03-06T05:40:21.920Z,976.016
2023-03-06T05:41:21.606Z,976.019
2023-03-06T05:42:21.140Z,975.913
2023-03-06T05:43:21.757Z,975.917
2023-03-06T05:44:21.356Z,975.949
2023-03-06T05:45:21.829Z,975.760
2023-03-06T05:46:21.729Z,975.958
2023-03-06T05:47:21.284Z,975.883
2023-03-06T05:48:21.756Z,976.007
2023-03-06T05:49:21.540Z,975.890
2023-03-06T05:50:21.044Z,975.850
2023-03-06T05:51:21.512Z,975.781
2023-03-06T05:52:21.969Z,975.790
2023-03-06T05:53:21.716Z,975.813
2023-03-06T05:54:21.373Z,975.786
2023-03-06T05:55:21.844Z,975.795
2023-03-06T05:56:21.597Z,975.636
2023-03-06T05:57:21.919Z,975.774
2023-03-06T05:58:21.481Z,975.706
2023-03-06T05:59:21.041Z,975.669
2023-03-06T06:00:21.551Z,975.613
2023-03-06T06:01:21.185Z,975.650
2023-03-06T06:02:21.981Z,975.838
2023-03-06T06:03:21.766Z,975.718
2023-03-06T06:04:21.440Z,975.760
2023-03-06T06:05:21.083Z,975.716
2023-03-06T06:06:21.669Z,975.725
2023-03-06T06:07:21.262Z,975.716
2023-03-06T06:08:21.863Z,975.714
2023-03-06T06:09:21.420Z,975.728
2023-03-06T06:10:21.924Z,975.731
2023-03-06T06:11:21.430Z,975.832
2023-03-06T06:12:21.908Z,975.717
2023-03-06T06:13:21.408Z,975.766
2023-03-06T06:14:20.992Z,975.661
2023-03-06T06:15:21.596Z,975.665
2023-03-06T06:16:21.373Z,975.619
2023-03-06T06:17:21.896Z,975.514
2023-03-06T06:18:21.447Z,975.739
2023-03-06T06:19:21.356Z,975.735
2023-03-06T06:20:21.935Z,975.691
2023-03-06T06:21:21.968Z,975.669
2023-03-06T06:22:21.511Z,975.725
2023-03-06T06:23:21.195Z,975.657
2023-03-06T06:24:21.797Z,975.718
2023-03-06T06:25:21.405Z,975.778
2023-03-06T06:26:21.894Z,975.714
2023-03-06T06:27:21.450Z,975.645
2023-03-06T06:28:21.097Z,975.730
2023-03-06T06:29:21.173Z,975.638
2023-03-06T06:30:21.759Z,975.713
2023-03-06T06:31:21.454Z,975.734
2023-03-06T06:32:21.988Z,975.667
2023-03-06T06:33:21.557Z,975.734
2023-03-06T06:34:21.112Z,975.695
2023-03-06T06:35:21.668Z,975.625
2023-03-06T06:36:21.447Z,975.682
2023-03-06T06:37:21.896Z,975.675
2023-03-06T06:38:21.407Z,975.650
2023-03-06T06:39:21.931Z,975.589
2023-03-06T06:40:21.648Z,975.594
2023-03-06T06:42:33.137Z,975.782
2023-03-06T06:43:25.381Z,975.675
2023-03-06T06:44:25.012Z,975.658
2023-03-06T06:45:25.696Z,975.693
2023-03-06T06:47:29.965Z,975.756
2023-03-06T06:48:29.708Z,975.693
2023-03-06T06:49:29.435Z,975.694
2023-03-06T06:50:29.024Z,975.698
2023-03-06T06:51:29.537Z,975.773
2023-03-06T06:52:29.300Z,975.706
2023-03-06T06:53:29.805Z,975.754
2023-03-06T06:54:29.374Z,975.717
2023-03-06T06:55:29.909Z,975.850
2023-03-06T06:56:29.449Z,975.852
2023-03-06T06:57:29.921Z,975.749
2023-03-06T06:58:29.438Z,975.883
2023-03-06T07:00:29.988Z,975.695
2023-03-06T07:01:29.779Z,975.664
2023-03-06T07:02:29.462Z,975.715
2023-03-06T07:03:29.045Z,975.753
2023-03-06T07:04:29.949Z,975.770
2023-03-06T07:06:29.305Z,975.832
2023-03-06T07:07:29.920Z,975.863
2023-03-06T07:08:29.509Z,975.935
2023-03-06T07:09:29.024Z,975.883
2023-03-06T07:10:29.583Z,975.889
2023-03-06T07:11:29.260Z,975.838
2023-03-06T07:12:29.746Z,975.798
2023-03-06T07:13:29.323Z,975.910
2023-03-06T07:14:29.864Z,976.014
2023-03-06T07:15:29.487Z,975.904
2023-03-06T07:16:29.129Z,975.835
2023-03-06T07:17:29.617Z,975.945
2023-03-06T07:18:30.002Z,975.923
2023-03-06T07:19:29.620Z,975.888
2023-03-06T07:20:29.152Z,975.885
2023-03-06T07:21:29.708Z,975.836
2023-03-06T07:22:32.072Z,975.861
2023-03-06T07:23:29.101Z,975.925
2023-03-06T07:24:29.901Z,975.853
2023-03-06T07:25:29.602Z,975.846
2023-03-06T07:26:29.061Z,975.810
2023-03-06T07:27:29.602Z,975.723
2023-03-06T07:28:33.681Z,975.847
2023-03-06T07:29:29.976Z,975.800
2023-03-06T07:30:29.540Z,975.814
2023-03-06T07:31:29.198Z,975.737
2023-03-06T07:32:29.934Z,975.868
2023-03-06T07:33:29.593Z,975.762
2023-03-06T07:34:29.817Z,975.764
2023-03-06T07:36:32.744Z,975.857
2023-03-06T07:37:32.317Z,975.858
2023-03-06T07:38:32.928Z,975.856
2023-03-06T07:39:32.503Z,975.899
2023-03-06T07:40:32.072Z,975.857
2023-03-06T07:41:32.682Z,975.779
2023-03-06T07:42:32.232Z,975.774
2023-03-06T07:44:32.196Z,975.836
2023-03-06T07:45:32.812Z,975.792
2023-03-06T07:46:32.645Z,975.951
2023-03-06T07:47:32.436Z,975.833
2023-03-06T07:48:32.404Z,975.877
2023-03-06T07:49:32.043Z,975.821
2023-03-06T07:50:32.656Z,975.811
2023-03-06T07:51:32.181Z,976.050
2023-03-06T07:52:32.672Z,975.942
2023-03-06T07:53:32.097Z,975.865
2023-03-06T07:54:32.670Z,975.968
2023-03-06T07:55:32.249Z,975.837
2023-03-06T07:56:32.754Z,975.926
2023-03-06T07:57:32.293Z,975.966
2023-03-06T07:58:32.936Z,975.980
2023-03-06T07:59:32.546Z,975.886
2023-03-06T08:00:32.201Z,976.012
2023-03-06T08:01:32.815Z,975.901
2023-03-06T08:02:32.310Z,975.970
2023-03-06T08:03:32.106Z,975.974
2023-03-06T08:04:32.887Z,975.985
2023-03-06T08:05:32.459Z,976.041
2023-03-06T08:06:32.952Z,976.115
2023-03-06T08:07:32.482Z,976.002
2023-03-06T08:08:32.012Z,976.075
2023-03-06T08:09:32.488Z,976.053
2023-03-06T08:10:32.096Z,976.114
2023-03-06T08:11:32.703Z,976.039
2023-03-06T08:12:32.332Z,976.117
2023-03-06T08:13:32.865Z,976.094
2023-03-06T08:14:32.416Z,976.080
2023-03-06T08:15:32.967Z,975.954
2023-03-06T08:16:33.040Z,976.030
2023-03-06T08:17:32.637Z,976.040
2023-03-06T08:18:32.224Z,975.967
2023-03-06T08:19:32.768Z,976.103
2023-03-06T08:20:32.361Z,975.895
2023-03-06T08:21:32.052Z,976.065
2023-03-06T08:22:32.585Z,976.146
2023-03-06T08:23:32.197Z,976.082
2023-03-06T08:24:32.441Z,975.885
2023-03-06T08:25:32.118Z,976.178
2023-03-06T08:26:32.735Z,976.022
2023-03-06T08:27:32.218Z,976.161
2023-03-06T08:28:32.368Z,976.195
2023-03-06T08:29:32.965Z,976.103
2023-03-06T08:30:32.428Z,976.192
2023-03-06T08:31:33.036Z,976.174
2023-03-06T08:32:32.065Z,976.171
2023-03-06T08:33:32.601Z,976.035
2023-03-06T08:34:32.205Z,976.170
2023-03-06T08:35:32.986Z,976.083
2023-03-06T08:36:32.716Z,976.115
2023-03-06T08:37:32.309Z,976.234
2023-03-06T08:38:32.822Z,976.094
2023-03-06T08:39:32.353Z,976.189
2023-03-06T08:40:32.136Z,976.155
2023-03-06T08:41:32.644Z,976.002
2023-03-06T08:42:32.212Z,976.207
2023-03-06T08:43:32.709Z,976.129
2023-03-06T08:44:32.240Z,976.065
2023-03-06T08:45:32.778Z,976.073
2023-03-06T08:46:32.555Z,976.164
2023-03-06T08:47:32.104Z,976.063
2023-03-06T08:48:32.608Z,976.092
2023-03-06T08:49:32.224Z,976.190
2023-03-06T08:50:32.798Z,976.098
2023-03-06T08:51:32.369Z,976.115
2023-03-06T08:52:32.928Z,975.994
2023-03-06T08:53:42.491Z,976.093
2023-03-06T08:54:32.188Z,976.128
2023-03-06T08:55:32.703Z,976.118
2023-03-06T08:56:32.277Z,976.002
2023-03-06T08:57:32.809Z,976.034
2023-03-06T08:58:32.366Z,976.157
2023-03-06T08:59:32.018Z,976.202
2023-03-06T09:00:32.620Z,976.112
2023-03-06T09:01:32.577Z,976.112
2023-03-06T09:02:32.372Z,976.042
2023-03-06T09:03:32.997Z,975.929
2023-03-06T09:04:32.604Z,976.134
2023-03-06T09:05:32.182Z,976.158
2023-03-06T09:06:32.703Z,976.106
2023-03-06T09:07:32.973Z,976.087
2023-03-06T09:08:32.452Z,976.025
2023-03-06T09:09:32.023Z,976.177
2023-03-06T09:10:32.611Z,975.995
2023-03-06T09:11:32.292Z,976.125
2023-03-06T09:12:40.511Z,976.146
2023-03-06T09:13:32.440Z,976.040
2023-03-06T09:14:32.001Z,976.103
2023-03-06T09:15:32.677Z,976.062
2023-03-06T09:16:32.352Z,976.057
2023-03-06T09:17:32.213Z,975.916
2023-03-06T09:18:32.916Z,976.132
2023-03-06T09:19:32.510Z,976.100
2023-03-06T09:20:32.093Z,975.848
2023-03-06T09:21:32.625Z,976.152
2023-03-06T09:22:32.193Z,976.033
2023-03-06T09:23:32.752Z,975.952
2023-03-06T09:24:32.422Z,976.150
2023-03-06T09:25:32.985Z,976.124
2023-03-06T09:26:44.852Z,975.979
2023-03-06T09:27:32.114Z,976.165
2023-03-06T09:28:32.465Z,976.167
2023-03-06T09:29:32.021Z,976.185
2023-03-06T09:30:32.644Z,976.137
2023-03-06T09:31:32.477Z,976.034
2023-03-06T09:32:32.264Z,976.089
2023-03-06T09:33:32.973Z,976.048
2023-03-06T09:34:32.550Z,976.081
2023-03-06T09:35:32.163Z,976.080
2023-03-06T09:36:40.200Z,976.106
2023-03-06T09:37:32.207Z,975.985
2023-03-06T09:38:32.761Z,976.052
2023-03-06T09:39:32.426Z,975.984
2023-03-06T09:40:32.040Z,976.088
2023-03-06T09:41:32.728Z,976.096
2023-03-06T09:42:32.241Z,976.150
2023-03-06T09:43:32.800Z,976.109
2023-03-06T09:44:32.459Z,976.061
2023-03-06T09:45:32.035Z,976.109
2023-03-06T09:46:32.020Z,975.992
2023-03-06T09:47:32.652Z,976.205
2023-03-06T09:48:32.162Z,976.103
2023-03-06T09:49:32.721Z,976.171
2023-03-06T09:50:32.272Z,976.119
2023-03-06T09:51:32.862Z,976.164
2023-03-06T09:52:32.443Z,976.051
2023-03-06T09:53:32.017Z,976.051
2023-03-06T09:54:32.614Z,976.147
2023-03-06T09:55:32.169Z,975.912
2023-03-06T09:56:32.810Z,976.000
2023-03-06T09:57:32.364Z,976.031
2023-03-06T09:58:32.505Z,976.019
2023-03-06T09:59:32.085Z,976.138
2023-03-06T10:00:32.676Z,976.113
2023-03-06T10:01:32.324Z,976.041
2023-03-06T10:02:32.200Z,976.165
2023-03-06T10:03:32.318Z,976.041
2023-03-06T10:04:32.061Z,976.072
2023-03-06T10:05:32.000Z,976.048
2023-03-06T10:06:32.562Z,976.165
2023-03-06T10:07:32.095Z,976.156
2023-03-06T10:08:32.581Z,976.081
2023-03-06T10:09:32.078Z,976.100
2023-03-06T10:10:32.707Z,976.102
2023-03-06T10:11:32.248Z,976.152
2023-03-06T10:12:32.800Z,976.106
2023-03-06T10:13:32.371Z,975.995
2023-03-06T10:14:32.915Z,976.052
2023-03-06T10:15:32.540Z,976.094
2023-03-06T10:16:32.397Z,976.176
2023-03-06T10:17:32.917Z,976.242
2023-03-06T10:18:32.485Z,976.082
2023-03-06T10:19:33.009Z,976.141
2023-03-06T10:20:32.673Z,976.104
2023-03-06T10:22:32.125Z,976.194
2023-03-06T10:23:32.476Z,976.036
2023-03-06T10:24:32.046Z,976.117
2023-03-06T10:25:32.689Z,976.030
2023-03-06T10:26:32.356Z,976.163
2023-03-06T10:27:32.385Z,976.181
2023-03-06T10:28:34.451Z,976.219
2023-03-06T10:29:32.092Z,976.371
2023-03-06T10:30:32.466Z,976.190
2023-03-06T10:31:32.228Z,976.064
2023-03-06T10:32:42.792Z,976.201
2023-03-06T10:33:32.769Z,976.091
2023-03-06T10:34:32.424Z,976.105
2023-03-06T10:35:33.014Z,976.088
2023-03-06T10:36:32.777Z,976.033
2023-03-06T10:37:32.665Z,976.119
2023-03-06T10:38:32.456Z,976.066
2023-03-06T10:39:32.082Z,976.138
2023-03-06T10:40:32.759Z,976.185
2023-03-06T10:41:32.459Z,976.156
2023-03-06T10:42:32.020Z,976.283
2023-03-06T10:43:34.058Z,976.029
2023-03-06T10:44:32.524Z,975.965
2023-03-06T10:45:43.871Z,976.102
2023-03-06T10:46:32.781Z,976.192
2023-03-06T10:47:32.376Z,976.159
2023-03-06T10:48:32.081Z,976.216
2023-03-06T10:49:32.626Z,976.160
2023-03-06T10:50:32.356Z,976.030
2023-03-06T10:51:32.897Z,976.079
2023-03-06T10:52:32.433Z,976.240
2023-03-06T10:53:32.950Z,976.202
2023-03-06T10:54:32.526Z,976.075
2023-03-06T10:55:32.198Z,976.160
2023-03-06T10:56:32.842Z,976.071
2023-03-06T10:57:32.431Z,976.272
2023-03-06T10:58:32.019Z,976.170
2023-03-06T10:59:32.677Z,976.145
2023-03-06T11:00:32.294Z,976.052
2023-03-06T11:01:32.974Z,976.161
2023-03-06T11:02:32.704Z,976.110
2023-03-06T11:03:32.283Z,976.103
2023-03-06T11:04:32.903Z,976.181
2023-03-06T11:05:32.672Z,976.058
2023-03-06T11:06:32.028Z,975.946
2023-03-06T11:07:32.493Z,976.123
2023-03-06T11:08:32.285Z,976.106
2023-03-06T11:09:32.016Z,976.048
2023-03-06T11:10:32.644Z,975.941
2023-03-06T11:11:37.639Z,976.060
2023-03-06T11:12:32.881Z,976.083
2023-03-06T11:13:32.434Z,976.016
2023-03-06T11:14:32.049Z,975.961
2023-03-06T11:15:32.619Z,975.944
2023-03-06T11:16:32.504Z,976.061
2023-03-06T11:17:32.109Z,976.032
2023-03-06T11:18:32.689Z,976.001
2023-03-06T11:19:32.237Z,976.040
2023-03-06T11:20:44.864Z,976.048
2023-03-06T11:21:32.245Z,975.972
2023-03-06T11:22:32.861Z,975.911
2023-03-06T11:23:32.848Z,975.935
2023-03-06T11:24:32.356Z,975.999
2023-03-06T11:25:32.926Z,975.844
2023-03-06T11:26:32.508Z,975.894
2023-03-06T11:27:32.113Z,975.841
2023-03-06T11:28:32.678Z,975.817
2023-03-06T11:29:34.595Z,975.915
2023-03-06T11:30:32.790Z,975.865
2023-03-06T11:31:32.447Z,976.035
2023-03-06T11:32:32.054Z,975.904
2023-03-06T11:33:32.550Z,975.752
2023-03-06T11:34:32.121Z,975.922
2023-03-06T11:35:32.694Z,975.722
2023-03-06T11:36:32.452Z,975.798
2023-03-06T11:37:32.042Z,975.861
2023-03-06T11:38:32.562Z,975.737
2023-03-06T11:39:32.128Z,975.814
2023-03-06T11:40:32.970Z,975.808
2023-03-06T11:41:32.440Z,975.868
2023-03-06T11:42:32.012Z,975.836
2023-03-06T11:43:32.534Z,975.870
2023-03-06T11:44:32.089Z,975.773
2023-03-06T11:45:32.850Z,975.642
2023-03-06T11:46:32.439Z,975.748
2023-03-06T11:47:32.133Z,975.742
2023-03-06T11:48:32.681Z,975.758
2023-03-06T11:50:32.882Z,975.649
2023-03-06T11:51:32.582Z,975.795
2023-03-06T11:52:32.233Z,975.796
2023-03-06T11:53:32.889Z,975.800
2023-03-06T11:55:32.025Z,975.513
2023-03-06T11:56:32.732Z,975.629
2023-03-06T11:57:32.318Z,975.687
2023-03-06T11:58:32.132Z,975.652
2023-03-06T11:59:32.896Z,975.760
2023-03-06T12:00:32.497Z,975.658
2023-03-06T12:01:32.405Z,975.691
2023-03-06T12:02:32.128Z,975.725
2023-03-06T12:03:32.776Z,975.668
2023-03-06T12:04:32.365Z,975.511
2023-03-06T12:05:32.184Z,975.707
2023-03-06T12:06:32.827Z,975.638
2023-03-06T12:07:32.589Z,975.718
2023-03-06T12:08:32.076Z,975.574
2023-03-06T12:09:32.739Z,975.371
2023-03-06T12:10:32.289Z,975.599
2023-03-06T12:11:32.882Z,975.620
2023-03-06T12:12:32.987Z,975.580
2023-03-06T12:13:32.706Z,975.512
2023-03-06T12:14:32.157Z,975.530